sensor_id;sensor_type;location;lat;lon;timestamp;temperature;humidity
65559;DHT22;52203;51.998;5.140;2024-03-02T00:01:02;13.88;118.99
65559;DHT22;52203;51.998;5.140;2024-03-02T00:03:28;13.86;118.99
65559;DHT22;52203;51.998;5.140;2024-03-02T00:05:53;13.86;118.99
65559;DHT22;52203;51.998;5.140;2024-03-02T00:08:22;13.85;118.99
65559;DHT22;52203;51.998;5.140;2024-03-02T00:10:47;13.84;118.99
65559;DHT22;52203;51.998;5.140;2024-03-02T00:13:13;13.82;118.99
65559;DHT22;52203;51.998;5.140;2024-03-02T00:18:04;13.83;118.99
65559;DHT22;52203;51.998;5.140;2024-03-02T00:20:30;13.80;118.99
65559;DHT22;52203;51.998;5.140;2024-03-02T00:23:03;13.79;118.99
65559;DHT22;52203;51.998;5.140;2024-03-02T00:25:39;13.78;118.99
65559;DHT22;52203;51.998;5.140;2024-03-02T00:28:13;13.78;118.99
65559;DHT22;52203;51.998;5.140;2024-03-02T00:33:20;13.77;118.99
65559;DHT22;52203;51.998;5.140;2024-03-02T00:35:46;13.75;118.99
65559;DHT22;52203;51.998;5.140;2024-03-02T00:38:12;13.75;118.99
65559;DHT22;52203;51.998;5.140;2024-03-02T00:40:37;13.75;118.99
65559;DHT22;52203;51.998;5.140;2024-03-02T00:43:03;13.74;118.99
65559;DHT22;52203;51.998;5.140;2024-03-02T00:45:28;13.73;118.99
65559;DHT22;52203;51.998;5.140;2024-03-02T00:47:54;13.71;118.99
65559;DHT22;52203;51.998;5.140;2024-03-02T00:50:20;13.70;118.99
65559;DHT22;52203;51.998;5.140;2024-03-02T00:52:46;13.71;118.99
65559;DHT22;52203;51.998;5.140;2024-03-02T00:55:13;13.68;118.99
65559;DHT22;52203;51.998;5.140;2024-03-02T00:57:39;13.69;118.99
65559;DHT22;52203;51.998;5.140;2024-03-02T01:00:04;13.68;118.99
65559;DHT22;52203;51.998;5.140;2024-03-02T01:02:34;13.67;118.99
65559;DHT22;52203;51.998;5.140;2024-03-02T01:04:59;13.67;118.99
65559;DHT22;52203;51.998;5.140;2024-03-02T01:07:25;13.66;118.99
65559;DHT22;52203;51.998;5.140;2024-03-02T01:09:50;13.67;118.99
65559;DHT22;52203;51.998;5.140;2024-03-02T01:12:16;13.66;118.99
65559;DHT22;52203;51.998;5.140;2024-03-02T01:14:41;13.63;118.99
65559;DHT22;52203;51.998;5.140;2024-03-02T01:17:08;13.63;118.99
65559;DHT22;52203;51.998;5.140;2024-03-02T01:19:34;13.63;118.99
65559;DHT22;52203;51.998;5.140;2024-03-02T01:21:59;13.62;118.99
65559;DHT22;52203;51.998;5.140;2024-03-02T01:24:25;13.61;118.99
65559;DHT22;52203;51.998;5.140;2024-03-02T01:26:50;13.61;118.99
65559;DHT22;52203;51.998;5.140;2024-03-02T01:29:15;13.61;118.99
65559;DHT22;52203;51.998;5.140;2024-03-02T01:31:41;13.61;118.99
65559;DHT22;52203;51.998;5.140;2024-03-02T01:34:07;13.61;118.99
65559;DHT22;52203;51.998;5.140;2024-03-02T01:36:33;13.59;118.99
65559;DHT22;52203;51.998;5.140;2024-03-02T01:38:58;13.56;118.99
65559;DHT22;52203;51.998;5.140;2024-03-02T01:41:24;13.56;118.99
65559;DHT22;52203;51.998;5.140;2024-03-02T01:43:49;13.54;118.99
65559;DHT22;52203;51.998;5.140;2024-03-02T01:46:15;13.55;118.99
65559;DHT22;52203;51.998;5.140;2024-03-02T01:48:40;13.54;118.99
65559;DHT22;52203;51.998;5.140;2024-03-02T01:51:06;13.54;118.99
65559;DHT22;52203;51.998;5.140;2024-03-02T01:53:31;13.54;118.99
65559;DHT22;52203;51.998;5.140;2024-03-02T01:55:57;13.54;118.99
65559;DHT22;52203;51.998;5.140;2024-03-02T01:58:25;13.51;118.99
65559;DHT22;52203;51.998;5.140;2024-03-02T02:00:50;13.51;118.99
65559;DHT22;52203;51.998;5.140;2024-03-02T02:03:15;13.51;118.99
65559;DHT22;52203;51.998;5.140;2024-03-02T02:05:42;13.50;118.99
65559;DHT22;52203;51.998;5.140;2024-03-02T02:08:07;13.50;118.99
65559;DHT22;52203;51.998;5.140;2024-03-02T02:10:33;13.47;118.99
65559;DHT22;52203;51.998;5.140;2024-03-02T02:12:58;13.49;118.99
65559;DHT22;52203;51.998;5.140;2024-03-02T02:15:27;13.47;118.99
65559;DHT22;52203;51.998;5.140;2024-03-02T02:17:53;13.47;118.99
65559;DHT22;52203;51.998;5.140;2024-03-02T02:20:22;13.45;118.99
65559;DHT22;52203;51.998;5.140;2024-03-02T02:25:21;13.44;118.99
65559;DHT22;52203;51.998;5.140;2024-03-02T02:27:46;13.45;118.99
65559;DHT22;52203;51.998;5.140;2024-03-02T02:30:12;13.43;118.99
65559;DHT22;52203;51.998;5.140;2024-03-02T02:32:37;13.41;118.99
65559;DHT22;52203;51.998;5.140;2024-03-02T02:35:03;13.41;118.99
65559;DHT22;52203;51.998;5.140;2024-03-02T02:37:28;13.43;118.99
65559;DHT22;52203;51.998;5.140;2024-03-02T02:39:54;13.44;118.99
65559;DHT22;52203;51.998;5.140;2024-03-02T02:42:19;13.44;118.99
65559;DHT22;52203;51.998;5.140;2024-03-02T02:44:44;13.43;118.99
65559;DHT22;52203;51.998;5.140;2024-03-02T02:47:10;13.44;118.99
65559;DHT22;52203;51.998;5.140;2024-03-02T02:49:35;13.47;118.99
65559;DHT22;52203;51.998;5.140;2024-03-02T02:52:00;13.46;118.99
65559;DHT22;52203;51.998;5.140;2024-03-02T02:54:26;13.48;118.99
65559;DHT22;52203;51.998;5.140;2024-03-02T02:56:51;13.47;118.99
65559;DHT22;52203;51.998;5.140;2024-03-02T02:59:17;13.48;118.99
65559;DHT22;52203;51.998;5.140;2024-03-02T03:01:42;13.49;118.99
65559;DHT22;52203;51.998;5.140;2024-03-02T03:04:07;13.49;118.99
65559;DHT22;52203;51.998;5.140;2024-03-02T03:06:33;13.50;118.99
65559;DHT22;52203;51.998;5.140;2024-03-02T03:08:58;13.51;118.99
65559;DHT22;52203;51.998;5.140;2024-03-02T03:11:24;13.52;118.99
65559;DHT22;52203;51.998;5.140;2024-03-02T03:13:53;13.52;118.99
65559;DHT22;52203;51.998;5.140;2024-03-02T03:16:19;13.52;118.99
65559;DHT22;52203;51.998;5.140;2024-03-02T03:18:45;13.52;118.99
65559;DHT22;52203;51.998;5.140;2024-03-02T03:21:10;13.51;118.99
65559;DHT22;52203;51.998;5.140;2024-03-02T03:23:35;13.53;118.99
65559;DHT22;52203;51.998;5.140;2024-03-02T03:26:01;13.53;118.99
65559;DHT22;52203;51.998;5.140;2024-03-02T03:28:26;13.54;118.99
65559;DHT22;52203;51.998;5.140;2024-03-02T03:30:52;13.54;118.99
65559;DHT22;52203;51.998;5.140;2024-03-02T03:33:17;13.54;118.99
65559;DHT22;52203;51.998;5.140;2024-03-02T03:35:42;13.53;118.99
65559;DHT22;52203;51.998;5.140;2024-03-02T03:38:08;13.54;118.99
65559;DHT22;52203;51.998;5.140;2024-03-02T03:40:33;13.54;118.99
65559;DHT22;52203;51.998;5.140;2024-03-02T03:42:59;13.55;118.99
65559;DHT22;52203;51.998;5.140;2024-03-02T03:45:25;13.56;118.99
65559;DHT22;52203;51.998;5.140;2024-03-02T03:47:52;13.56;118.99
65559;DHT22;52203;51.998;5.140;2024-03-02T03:50:17;13.56;118.99
65559;DHT22;52203;51.998;5.140;2024-03-02T03:52:43;13.58;118.99
65559;DHT22;52203;51.998;5.140;2024-03-02T03:55:08;13.56;118.99
65559;DHT22;52203;51.998;5.140;2024-03-02T03:57:35;13.55;118.99
65559;DHT22;52203;51.998;5.140;2024-03-02T04:00:00;13.56;118.99
65559;DHT22;52203;51.998;5.140;2024-03-02T04:02:26;13.59;118.99
65559;DHT22;52203;51.998;5.140;2024-03-02T04:04:51;13.56;118.99
65559;DHT22;52203;51.998;5.140;2024-03-02T04:07:17;13.55;118.99
65559;DHT22;52203;51.998;5.140;2024-03-02T04:09:44;13.54;118.99
65559;DHT22;52203;51.998;5.140;2024-03-02T04:12:10;13.51;118.99
65559;DHT22;52203;51.998;5.140;2024-03-02T04:14:35;13.49;118.99
65559;DHT22;52203;51.998;5.140;2024-03-02T04:17:00;13.49;118.99
65559;DHT22;52203;51.998;5.140;2024-03-02T04:19:26;13.48;118.99
65559;DHT22;52203;51.998;5.140;2024-03-02T04:21:51;13.47;118.99
65559;DHT22;52203;51.998;5.140;2024-03-02T04:24:17;13.46;118.99
65559;DHT22;52203;51.998;5.140;2024-03-02T04:26:42;13.46;118.99
65559;DHT22;52203;51.998;5.140;2024-03-02T04:29:07;13.44;118.99
65559;DHT22;52203;51.998;5.140;2024-03-02T04:31:33;13.44;118.99
65559;DHT22;52203;51.998;5.140;2024-03-02T04:33:58;13.44;118.99
65559;DHT22;52203;51.998;5.140;2024-03-02T04:36:24;13.43;118.99
65559;DHT22;52203;51.998;5.140;2024-03-02T04:38:49;13.44;118.99
65559;DHT22;52203;51.998;5.140;2024-03-02T04:41:14;13.43;118.99
65559;DHT22;52203;51.998;5.140;2024-03-02T04:43:40;13.41;118.99
65559;DHT22;52203;51.998;5.140;2024-03-02T04:46:05;13.41;118.99
65559;DHT22;52203;51.998;5.140;2024-03-02T04:48:33;13.38;118.99
65559;DHT22;52203;51.998;5.140;2024-03-02T04:50:58;13.38;118.99
65559;DHT22;52203;51.998;5.140;2024-03-02T04:53:24;13.37;118.99
65559;DHT22;52203;51.998;5.140;2024-03-02T04:55:49;13.36;118.99
65559;DHT22;52203;51.998;5.140;2024-03-02T04:58:43;13.37;118.99
65559;DHT22;52203;51.998;5.140;2024-03-02T05:01:09;13.37;118.99
65559;DHT22;52203;51.998;5.140;2024-03-02T05:03:34;13.36;118.99
65559;DHT22;52203;51.998;5.140;2024-03-02T05:06:00;13.34;118.99
65559;DHT22;52203;51.998;5.140;2024-03-02T05:08:25;13.34;118.99
65559;DHT22;52203;51.998;5.140;2024-03-02T05:10:50;13.33;118.99
65559;DHT22;52203;51.998;5.140;2024-03-02T05:13:16;13.32;118.99
65559;DHT22;52203;51.998;5.140;2024-03-02T05:15:42;13.33;118.99
65559;DHT22;52203;51.998;5.140;2024-03-02T05:18:08;13.33;118.99
65559;DHT22;52203;51.998;5.140;2024-03-02T05:20:34;13.38;118.99
65559;DHT22;52203;51.998;5.140;2024-03-02T05:22:59;13.37;118.99
65559;DHT22;52203;51.998;5.140;2024-03-02T05:25:25;13.36;118.99
65559;DHT22;52203;51.998;5.140;2024-03-02T05:27:50;13.38;118.99
65559;DHT22;52203;51.998;5.140;2024-03-02T05:30:16;13.36;118.99
65559;DHT22;52203;51.998;5.140;2024-03-02T05:32:41;13.37;118.99
65559;DHT22;52203;51.998;5.140;2024-03-02T05:35:07;13.36;118.99
65559;DHT22;52203;51.998;5.140;2024-03-02T05:37:33;13.35;118.99
65559;DHT22;52203;51.998;5.140;2024-03-02T05:39:59;13.33;118.99
65559;DHT22;52203;51.998;5.140;2024-03-02T05:42:27;13.33;118.99
65559;DHT22;52203;51.998;5.140;2024-03-02T05:44:52;13.33;118.99
65559;DHT22;52203;51.998;5.140;2024-03-02T05:47:18;13.33;118.99
65559;DHT22;52203;51.998;5.140;2024-03-02T05:49:43;13.34;118.99
65559;DHT22;52203;51.998;5.140;2024-03-02T05:52:09;13.33;118.99
65559;DHT22;52203;51.998;5.140;2024-03-02T05:54:35;13.33;118.99
65559;DHT22;52203;51.998;5.140;2024-03-02T05:57:01;13.33;118.99
65559;DHT22;52203;51.998;5.140;2024-03-02T05:59:42;13.31;118.99
65559;DHT22;52203;51.998;5.140;2024-03-02T06:02:07;13.31;118.99
65559;DHT22;52203;51.998;5.140;2024-03-02T06:04:32;13.30;118.99
65559;DHT22;52203;51.998;5.140;2024-03-02T06:06:58;13.31;118.99
65559;DHT22;52203;51.998;5.140;2024-03-02T06:09:23;13.30;118.99
65559;DHT22;52203;51.998;5.140;2024-03-02T06:11:49;13.29;118.99
65559;DHT22;52203;51.998;5.140;2024-03-02T06:14:15;13.29;118.99
65559;DHT22;52203;51.998;5.140;2024-03-02T06:16:40;13.27;118.99
65559;DHT22;52203;51.998;5.140;2024-03-02T06:19:06;13.26;118.99
65559;DHT22;52203;51.998;5.140;2024-03-02T06:21:32;13.29;118.99
65559;DHT22;52203;51.998;5.140;2024-03-02T06:23:57;13.29;118.99
65559;DHT22;52203;51.998;5.140;2024-03-02T06:26:23;13.26;118.99
65559;DHT22;52203;51.998;5.140;2024-03-02T06:28:48;13.25;118.99
65559;DHT22;52203;51.998;5.140;2024-03-02T06:31:14;13.26;118.99
65559;DHT22;52203;51.998;5.140;2024-03-02T06:33:39;13.25;118.99
65559;DHT22;52203;51.998;5.140;2024-03-02T06:36:08;13.26;118.99
65559;DHT22;52203;51.998;5.140;2024-03-02T06:38:34;13.25;118.99
65559;DHT22;52203;51.998;5.140;2024-03-02T06:41:00;13.24;118.99
65559;DHT22;52203;51.998;5.140;2024-03-02T06:43:25;13.25;118.99
65559;DHT22;52203;51.998;5.140;2024-03-02T06:45:51;13.23;118.99
65559;DHT22;52203;51.998;5.140;2024-03-02T06:48:16;13.23;118.99
65559;DHT22;52203;51.998;5.140;2024-03-02T06:50:51;13.23;118.99
65559;DHT22;52203;51.998;5.140;2024-03-02T06:53:17;13.23;118.99
65559;DHT22;52203;51.998;5.140;2024-03-02T06:55:46;13.25;118.99
65559;DHT22;52203;51.998;5.140;2024-03-02T06:58:14;13.24;118.99
65559;DHT22;52203;51.998;5.140;2024-03-02T07:00:43;13.24;118.99
65559;DHT22;52203;51.998;5.140;2024-03-02T07:03:09;13.25;118.99
65559;DHT22;52203;51.998;5.140;2024-03-02T07:05:34;13.27;118.99
65559;DHT22;52203;51.998;5.140;2024-03-02T07:08:00;13.29;118.99
65559;DHT22;52203;51.998;5.140;2024-03-02T07:10:26;13.27;118.99
65559;DHT22;52203;51.998;5.140;2024-03-02T07:12:52;13.29;118.99
65559;DHT22;52203;51.998;5.140;2024-03-02T07:15:17;13.30;118.99
65559;DHT22;52203;51.998;5.140;2024-03-02T07:17:51;13.38;118.99
65559;DHT22;52203;51.998;5.140;2024-03-02T07:20:17;13.41;118.99
65559;DHT22;52203;51.998;5.140;2024-03-02T07:22:42;13.46;118.99
65559;DHT22;52203;51.998;5.140;2024-03-02T07:25:08;13.47;118.99
65559;DHT22;52203;51.998;5.140;2024-03-02T07:27:36;13.47;118.99
65559;DHT22;52203;51.998;5.140;2024-03-02T07:30:04;13.46;118.99
65559;DHT22;52203;51.998;5.140;2024-03-02T07:32:30;13.45;118.99
65559;DHT22;52203;51.998;5.140;2024-03-02T07:34:55;13.46;118.99
65559;DHT22;52203;51.998;5.140;2024-03-02T07:37:21;13.50;118.99
65559;DHT22;52203;51.998;5.140;2024-03-02T07:39:46;13.51;118.99
65559;DHT22;52203;51.998;5.140;2024-03-02T07:42:12;13.52;118.99
65559;DHT22;52203;51.998;5.140;2024-03-02T07:44:37;13.53;118.99
65559;DHT22;52203;51.998;5.140;2024-03-02T07:47:03;13.52;118.99
65559;DHT22;52203;51.998;5.140;2024-03-02T07:49:28;13.54;118.99
65559;DHT22;52203;51.998;5.140;2024-03-02T07:51:53;13.51;118.99
65559;DHT22;52203;51.998;5.140;2024-03-02T07:54:19;13.50;118.99
65559;DHT22;52203;51.998;5.140;2024-03-02T07:56:44;13.49;118.99
65559;DHT22;52203;51.998;5.140;2024-03-02T07:59:10;13.47;118.99
65559;DHT22;52203;51.998;5.140;2024-03-02T08:01:35;13.47;118.99
65559;DHT22;52203;51.998;5.140;2024-03-02T08:04:01;13.56;118.99
65559;DHT22;52203;51.998;5.140;2024-03-02T08:06:29;13.62;118.99
65559;DHT22;52203;51.998;5.140;2024-03-02T08:08:55;13.66;118.99
65559;DHT22;52203;51.998;5.140;2024-03-02T08:11:21;13.71;118.99
65559;DHT22;52203;51.998;5.140;2024-03-02T08:13:46;13.75;118.99
65559;DHT22;52203;51.998;5.140;2024-03-02T08:16:12;13.79;118.99
65559;DHT22;52203;51.998;5.140;2024-03-02T08:18:37;13.81;118.99
65559;DHT22;52203;51.998;5.140;2024-03-02T08:21:03;13.83;118.99
65559;DHT22;52203;51.998;5.140;2024-03-02T08:23:28;13.85;118.99
65559;DHT22;52203;51.998;5.140;2024-03-02T08:25:54;13.85;118.99
65559;DHT22;52203;51.998;5.140;2024-03-02T08:28:19;13.88;118.99
65559;DHT22;52203;51.998;5.140;2024-03-02T08:30:45;13.91;118.99
65559;DHT22;52203;51.998;5.140;2024-03-02T08:33:10;13.91;118.99
65559;DHT22;52203;51.998;5.140;2024-03-02T08:35:36;13.95;118.99
65559;DHT22;52203;51.998;5.140;2024-03-02T08:38:02;13.97;118.99
65559;DHT22;52203;51.998;5.140;2024-03-02T08:40:27;14.01;118.99
65559;DHT22;52203;51.998;5.140;2024-03-02T08:42:53;14.04;118.99
65559;DHT22;52203;51.998;5.140;2024-03-02T08:45:18;14.05;118.99
65559;DHT22;52203;51.998;5.140;2024-03-02T08:47:45;14.07;118.99
65559;DHT22;52203;51.998;5.140;2024-03-02T08:50:11;14.10;118.99
65559;DHT22;52203;51.998;5.140;2024-03-02T08:52:36;14.33;118.99
65559;DHT22;52203;51.998;5.140;2024-03-02T08:55:02;14.38;118.99
65559;DHT22;52203;51.998;5.140;2024-03-02T08:57:27;14.57;118.99
65559;DHT22;52203;51.998;5.140;2024-03-02T08:59:53;14.87;118.99
65559;DHT22;52203;51.998;5.140;2024-03-02T09:02:18;14.75;118.99
65559;DHT22;52203;51.998;5.140;2024-03-02T09:04:44;14.56;118.99
65559;DHT22;52203;51.998;5.140;2024-03-02T09:07:09;14.49;118.99
65559;DHT22;52203;51.998;5.140;2024-03-02T09:09:34;14.43;118.99
65559;DHT22;52203;51.998;5.140;2024-03-02T09:12:00;14.40;118.99
65559;DHT22;52203;51.998;5.140;2024-03-02T09:14:25;14.39;118.99
65559;DHT22;52203;51.998;5.140;2024-03-02T09:16:51;14.42;118.99
65559;DHT22;52203;51.998;5.140;2024-03-02T09:19:16;14.42;118.99
65559;DHT22;52203;51.998;5.140;2024-03-02T09:21:42;14.44;118.99
65559;DHT22;52203;51.998;5.140;2024-03-02T09:24:07;14.48;118.99
65559;DHT22;52203;51.998;5.140;2024-03-02T09:26:33;14.56;118.99
65559;DHT22;52203;51.998;5.140;2024-03-02T09:28:58;15.23;118.99
65559;DHT22;52203;51.998;5.140;2024-03-02T09:31:23;15.90;118.99
65559;DHT22;52203;51.998;5.140;2024-03-02T09:33:49;16.06;118.99
65559;DHT22;52203;51.998;5.140;2024-03-02T09:36:17;16.17;118.99
65559;DHT22;52203;51.998;5.140;2024-03-02T09:38:46;16.69;118.99
65559;DHT22;52203;51.998;5.140;2024-03-02T09:41:12;16.69;118.99
65559;DHT22;52203;51.998;5.140;2024-03-02T09:43:37;16.29;118.99
65559;DHT22;52203;51.998;5.140;2024-03-02T09:46:05;16.33;118.99
65559;DHT22;52203;51.998;5.140;2024-03-02T09:48:31;16.32;118.99
65559;DHT22;52203;51.998;5.140;2024-03-02T09:50:56;16.27;118.99
65559;DHT22;52203;51.998;5.140;2024-03-02T09:53:22;15.43;118.99
65559;DHT22;52203;51.998;5.140;2024-03-02T09:55:48;15.56;118.99
65559;DHT22;52203;51.998;5.140;2024-03-02T09:58:13;15.47;118.99
65559;DHT22;52203;51.998;5.140;2024-03-02T10:00:39;15.27;118.99
65559;DHT22;52203;51.998;5.140;2024-03-02T10:03:04;15.21;118.99
65559;DHT22;52203;51.998;5.140;2024-03-02T10:05:30;15.19;118.99
65559;DHT22;52203;51.998;5.140;2024-03-02T10:07:59;15.28;118.99
65559;DHT22;52203;51.998;5.140;2024-03-02T10:10:26;15.19;118.99
65559;DHT22;52203;51.998;5.140;2024-03-02T10:13:04;15.00;118.99
65559;DHT22;52203;51.998;5.140;2024-03-02T10:15:30;14.57;118.99
65559;DHT22;52203;51.998;5.140;2024-03-02T10:17:56;14.33;118.99
65559;DHT22;52203;51.998;5.140;2024-03-02T10:20:26;14.23;118.99
65559;DHT22;52203;51.998;5.140;2024-03-02T10:22:54;14.18;118.99
65559;DHT22;52203;51.998;5.140;2024-03-02T10:25:32;14.05;118.99
65559;DHT22;52203;51.998;5.140;2024-03-02T10:28:01;13.94;118.99
65559;DHT22;52203;51.998;5.140;2024-03-02T10:30:27;13.93;118.99
65559;DHT22;52203;51.998;5.140;2024-03-02T10:32:56;13.83;118.99
65559;DHT22;52203;51.998;5.140;2024-03-02T10:35:24;13.81;118.99
65559;DHT22;52203;51.998;5.140;2024-03-02T10:37:51;13.83;118.99
65559;DHT22;52203;51.998;5.140;2024-03-02T10:40:17;13.73;118.99
65559;DHT22;52203;51.998;5.140;2024-03-02T10:42:43;13.70;118.99
65559;DHT22;52203;51.998;5.140;2024-03-02T10:45:09;13.79;118.99
65559;DHT22;52203;51.998;5.140;2024-03-02T10:47:36;13.73;118.99
65559;DHT22;52203;51.998;5.140;2024-03-02T10:50:03;13.82;118.99
65559;DHT22;52203;51.998;5.140;2024-03-02T10:52:31;13.81;118.99
65559;DHT22;52203;51.998;5.140;2024-03-02T10:54:56;13.79;118.99
65559;DHT22;52203;51.998;5.140;2024-03-02T10:57:22;13.73;118.99
65559;DHT22;52203;51.998;5.140;2024-03-02T11:00:01;13.71;118.99
65559;DHT22;52203;51.998;5.140;2024-03-02T11:02:27;13.67;118.99
65559;DHT22;52203;51.998;5.140;2024-03-02T11:04:54;13.69;118.99
65559;DHT22;52203;51.998;5.140;2024-03-02T11:07:20;13.71;118.99
65559;DHT22;52203;51.998;5.140;2024-03-02T11:10:07;13.71;118.99
65559;DHT22;52203;51.998;5.140;2024-03-02T11:12:42;13.70;118.99
65559;DHT22;52203;51.998;5.140;2024-03-02T11:15:10;13.74;118.99
65559;DHT22;52203;51.998;5.140;2024-03-02T11:17:35;13.74;118.99
65559;DHT22;52203;51.998;5.140;2024-03-02T11:20:01;13.77;118.99
65559;DHT22;52203;51.998;5.140;2024-03-02T11:22:28;13.78;118.99
65559;DHT22;52203;51.998;5.140;2024-03-02T11:24:53;13.80;118.99
65559;DHT22;52203;51.998;5.140;2024-03-02T11:32:56;13.69;118.99
65559;DHT22;52203;51.998;5.140;2024-03-02T11:35:23;13.65;118.99
65559;DHT22;52203;51.998;5.140;2024-03-02T11:37:49;13.44;118.99
65559;DHT22;52203;51.998;5.140;2024-03-02T11:40:14;13.32;118.99
65559;DHT22;52203;51.998;5.140;2024-03-02T11:42:39;13.45;118.99
65559;DHT22;52203;51.998;5.140;2024-03-02T11:45:05;13.59;118.99
65559;DHT22;52203;51.998;5.140;2024-03-02T11:47:33;13.63;118.99
65559;DHT22;52203;51.998;5.140;2024-03-02T11:49:59;13.66;118.99
65559;DHT22;52203;51.998;5.140;2024-03-02T11:52:24;13.63;118.99
65559;DHT22;52203;51.998;5.140;2024-03-02T11:54:51;13.64;118.99
65559;DHT22;52203;51.998;5.140;2024-03-02T11:57:17;13.71;118.99
65559;DHT22;52203;51.998;5.140;2024-03-02T11:59:43;13.81;118.99
65559;DHT22;52203;51.998;5.140;2024-03-02T12:02:15;13.85;118.99
65559;DHT22;52203;51.998;5.140;2024-03-02T12:04:42;13.82;118.99
65559;DHT22;52203;51.998;5.140;2024-03-02T12:07:08;13.81;118.99
65559;DHT22;52203;51.998;5.140;2024-03-02T12:09:34;13.80;118.99
65559;DHT22;52203;51.998;5.140;2024-03-02T12:12:06;13.77;118.99
65559;DHT22;52203;51.998;5.140;2024-03-02T12:14:32;13.84;118.99
65559;DHT22;52203;51.998;5.140;2024-03-02T12:17:00;13.95;118.99
65559;DHT22;52203;51.998;5.140;2024-03-02T12:19:26;13.92;118.99
65559;DHT22;52203;51.998;5.140;2024-03-02T12:21:52;13.89;118.99
65559;DHT22;52203;51.998;5.140;2024-03-02T12:24:18;13.85;118.99
65559;DHT22;52203;51.998;5.140;2024-03-02T12:26:43;13.82;118.99
65559;DHT22;52203;51.998;5.140;2024-03-02T12:29:09;13.80;118.99
65559;DHT22;52203;51.998;5.140;2024-03-02T12:31:34;13.78;118.99
65559;DHT22;52203;51.998;5.140;2024-03-02T12:34:00;13.76;118.99
65559;DHT22;52203;51.998;5.140;2024-03-02T12:36:26;13.82;118.99
65559;DHT22;52203;51.998;5.140;2024-03-02T12:38:54;13.84;118.99
65559;DHT22;52203;51.998;5.140;2024-03-02T12:41:20;13.84;118.99
65559;DHT22;52203;51.998;5.140;2024-03-02T12:43:46;13.90;118.99
65559;DHT22;52203;51.998;5.140;2024-03-02T12:46:11;14.11;118.99
65559;DHT22;52203;51.998;5.140;2024-03-02T12:48:36;14.05;118.99
65559;DHT22;52203;51.998;5.140;2024-03-02T12:51:02;14.10;118.99
65559;DHT22;52203;51.998;5.140;2024-03-02T12:53:28;14.15;118.99
65559;DHT22;52203;51.998;5.140;2024-03-02T12:55:53;14.07;118.99
65559;DHT22;52203;51.998;5.140;2024-03-02T12:58:21;14.13;118.99
65559;DHT22;52203;51.998;5.140;2024-03-02T13:00:47;14.23;118.99
65559;DHT22;52203;51.998;5.140;2024-03-02T13:03:12;14.22;118.99
65559;DHT22;52203;51.998;5.140;2024-03-02T13:05:39;14.10;118.99
